Time;durP1;ratioP1;P1;durP2;ratioP2;P2;SDS_P1;SDS_P2;PMS_P1;PMS_P2;Temp;Humidity;BMP_temperature;BMP_pressure;BME280_temperature;BME280_humidity;BME280_pressure;Samples;Min_cycle;Max_cycle;Signal;HPM_P1;HPM_P2
2023/08/25 00:00:36;;;;;;;6.63;2.78;;;19.60;99.90;;;;;;5060279;28;20056;-63
2023/08/25 00:03:03;;;;;;;10.32;2.50;;;19.60;99.90;;;;;;5059762;28;20017;-63
2023/08/25 00:05:28;;;;;;;6.78;2.63;;;19.70;99.90;;;;;;5060326;28;20024;-64
2023/08/25 00:07:54;;;;;;;7.00;3.35;;;19.70;99.90;;;;;;5059694;28;20392;-63
2023/08/25 00:10:21;;;;;;;8.57;3.13;;;19.80;99.90;;;;;;5059977;28;20020;-63
2023/08/25 00:12:47;;;;;;;10.70;3.10;;;19.70;99.90;;;;;;5059998;28;20033;-64
2023/08/25 00:15:13;;;;;;;6.90;2.95;;;19.70;99.90;;;;;;5059612;28;20067;-63
2023/08/25 00:17:39;;;;;;;5.50;2.70;;;19.70;99.90;;;;;;5059764;28;20131;-63
2023/08/25 00:20:08;;;;;;;8.82;3.20;;;19.80;99.90;;;;;;5059574;28;20522;-64
2023/08/25 00:22:34;;;;;;;5.30;2.92;;;19.80;99.90;;;;;;5059859;28;20028;-64
2023/08/25 00:25:00;;;;;;;9.55;2.97;;;19.80;99.90;;;;;;5059515;28;20033;-64
2023/08/25 00:27:26;;;;;;;12.82;3.78;;;19.80;99.90;;;;;;5059697;28;20108;-65
2023/08/25 00:29:53;;;;;;;8.48;3.03;;;19.80;99.90;;;;;;5059171;28;20095;-65
2023/08/25 00:32:19;;;;;;;6.45;2.80;;;19.70;99.90;;;;;;5056632;28;20029;-64
2023/08/25 00:34:45;;;;;;;8.90;2.97;;;19.70;99.90;;;;;;5056822;28;20151;-64
2023/08/25 00:37:10;;;;;;;8.02;2.78;;;19.70;99.90;;;;;;5056196;28;20071;-64
2023/08/25 00:39:37;;;;;;;6.65;2.80;;;19.70;99.90;;;;;;5056188;28;20028;-64
2023/08/25 00:42:03;;;;;;;6.18;3.10;;;19.70;99.90;;;;;;5056705;28;20021;-64
2023/08/25 00:44:28;;;;;;;7.50;2.90;;;19.70;99.90;;;;;;5055828;28;20480;-64
2023/08/25 00:46:54;;;;;;;13.38;3.53;;;19.60;99.90;;;;;;5056366;28;20013;-64
2023/08/25 00:49:21;;;;;;;8.23;2.75;;;19.60;99.90;;;;;;5056086;28;20418;-64
2023/08/25 00:51:47;;;;;;;7.97;2.92;;;19.50;99.90;;;;;;5055646;28;20029;-64
2023/08/25 00:54:13;;;;;;;6.45;2.90;;;19.30;99.90;;;;;;5056213;28;20075;-63
2023/08/25 00:56:39;;;;;;;11.20;2.97;;;19.20;99.90;;;;;;5056162;28;20441;-64
2023/08/25 00:59:05;;;;;;;5.03;2.92;;;19.20;99.90;;;;;;5056346;28;20067;-64
2023/08/25 01:01:31;;;;;;;11.40;3.47;;;19.20;99.90;;;;;;5056085;28;20064;-64
2023/08/25 01:03:57;;;;;;;9.68;3.55;;;19.20;99.90;;;;;;5054397;28;20079;-63
2023/08/25 01:06:23;;;;;;;9.68;3.00;;;19.30;99.90;;;;;;5055673;28;20020;-64
2023/08/25 01:08:49;;;;;;;6.75;2.75;;;19.30;99.90;;;;;;5055620;28;20103;-64
2023/08/25 01:11:41;;;;;;;9.15;3.10;;;19.20;99.90;;;;;;5056068;28;20025;-64
2023/08/25 01:14:23;;;;;;;5.20;2.83;;;19.20;99.90;;;;;;5055575;28;20048;-64
2023/08/25 01:17:14;;;;;;;10.93;2.90;;;19.30;99.90;;;;;;5055552;28;20082;-64
2023/08/25 01:19:52;;;;;;;7.72;2.88;;;19.10;99.90;;;;;;5055113;28;20025;-63
2023/08/25 01:22:36;;;;;;;4.93;2.70;;;19.10;99.90;;;;;;5055378;28;20104;-63
2023/08/25 01:25:26;;;;;;;12.48;3.30;;;19.10;99.90;;;;;;5055608;28;20115;-63
2023/08/25 01:27:55;;;;;;;7.82;3.38;;;19.10;99.90;;;;;;5056220;28;20025;-64
2023/08/25 01:30:23;;;;;;;6.47;2.80;;;19.10;99.90;;;;;;5055703;28;20025;-63
2023/08/25 01:32:52;;;;;;;6.68;2.92;;;19.10;99.90;;;;;;5055098;28;20480;-64
2023/08/25 01:35:23;;;;;;;9.43;3.40;;;19.00;99.90;;;;;;5053883;28;20021;-64
2023/08/25 01:38:10;;;;;;;;;;;18.90;99.90;;;;;;5055840;28;20028;-64
2023/08/25 01:40:47;;;;;;;5.63;3.63;;;18.90;99.90;;;;;;5055405;28;19907;-64
2023/08/25 01:43:16;;;;;;;9.05;2.47;;;18.90;99.90;;;;;;5054906;28;20031;-64
2023/08/25 01:45:42;;;;;;;7.20;3.13;;;18.90;99.90;;;;;;5054671;28;20021;-64
2023/08/25 01:48:10;;;;;;;9.38;3.30;;;18.90;99.90;;;;;;5054570;28;20082;-64
2023/08/25 01:50:38;;;;;;;9.13;3.00;;;18.90;99.90;;;;;;5055428;28;20052;-65
2023/08/25 01:53:04;;;;;;;7.07;3.45;;;18.90;99.90;;;;;;5055069;28;20032;-64
2023/08/25 01:55:29;;;;;;;8.20;3.35;;;18.90;99.90;;;;;;5054801;28;20037;-63
2023/08/25 01:57:55;;;;;;;8.15;3.67;;;18.90;99.90;;;;;;5054481;28;20063;-65
2023/08/25 02:00:21;;;;;;;8.30;3.17;;;18.90;99.90;;;;;;5054927;28;20029;-64
2023/08/25 02:02:46;;;;;;;9.35;3.60;;;18.90;99.90;;;;;;5054641;28;20123;-64
2023/08/25 02:05:12;;;;;;;7.45;3.42;;;18.80;99.90;;;;;;5055023;28;20100;-63
2023/08/25 02:07:38;;;;;;;10.07;3.60;;;18.70;99.90;;;;;;5054768;28;20021;-63
2023/08/25 02:10:04;;;;;;;6.68;3.10;;;18.80;99.90;;;;;;5054381;28;20028;-64
2023/08/25 02:12:29;;;;;;;5.88;3.35;;;18.70;99.90;;;;;;5054295;28;20029;-63
2023/08/25 02:14:55;;;;;;;6.63;3.22;;;18.80;99.90;;;;;;5055140;28;20037;-64
2023/08/25 02:17:21;;;;;;;12.68;3.10;;;18.70;99.90;;;;;;5054524;28;20017;-63
2023/08/25 02:19:46;;;;;;;10.18;3.35;;;18.70;99.90;;;;;;5054333;28;20412;-63
2023/08/25 02:22:12;;;;;;;7.32;3.50;;;18.70;99.90;;;;;;5054141;28;20033;-64
2023/08/25 02:24:38;;;;;;;6.47;3.10;;;18.70;99.90;;;;;;5054092;28;20075;-64
2023/08/25 02:27:03;;;;;;;7.15;3.20;;;18.70;99.90;;;;;;5054471;28;20071;-64
2023/08/25 02:29:29;;;;;;;6.38;3.90;;;18.70;99.90;;;;;;5054644;28;20090;-64
2023/08/25 02:31:55;;;;;;;8.45;3.53;;;18.70;99.90;;;;;;5053994;28;20025;-64
2023/08/25 02:34:22;;;;;;;7.53;3.65;;;18.60;99.90;;;;;;5053921;28;20025;-64
2023/08/25 02:36:47;;;;;;;12.30;4.07;;;18.60;99.90;;;;;;5054494;28;20353;-63
2023/08/25 02:39:13;;;;;;;7.80;3.92;;;18.70;99.90;;;;;;5053904;28;20028;-64
2023/08/25 02:41:38;;;;;;;11.23;3.63;;;18.70;99.90;;;;;;5053976;28;20464;-64
2023/08/25 02:44:04;;;;;;;9.63;3.25;;;18.70;99.90;;;;;;5053626;28;20021;-63
2023/08/25 02:46:30;;;;;;;7.22;3.60;;;18.60;99.90;;;;;;5054179;28;20516;-64
2023/08/25 02:48:55;;;;;;;7.15;3.78;;;18.60;99.90;;;;;;5053327;28;20520;-63
2023/08/25 02:51:21;;;;;;;7.22;4.38;;;18.60;99.90;;;;;;5052438;28;20123;-64
2023/08/25 02:53:47;;;;;;;11.38;5.10;;;18.60;99.90;;;;;;5053759;28;20068;-63
2023/08/25 02:56:12;;;;;;;10.32;4.30;;;18.70;99.90;;;;;;5053725;28;20021;-64
2023/08/25 02:58:38;;;;;;;6.88;3.78;;;18.70;99.90;;;;;;5053738;28;20024;-64
2023/08/25 03:01:11;;;;;;;8.32;3.42;;;18.70;99.90;;;;;;5053677;28;20432;-64
2023/08/25 03:03:37;;;;;;;9.25;3.45;;;18.70;99.90;;;;;;5054297;28;20029;-63
2023/08/25 03:06:02;;;;;;;7.03;3.20;;;18.60;99.90;;;;;;5052278;28;20028;-63
2023/08/25 03:08:28;;;;;;;11.38;4.20;;;18.60;99.90;;;;;;5053762;28;20082;-64
2023/08/25 03:10:53;;;;;;;7.30;4.05;;;18.50;99.90;;;;;;5053978;28;20035;-64
2023/08/25 03:13:19;;;;;;;10.55;4.63;;;18.50;99.90;;;;;;5053773;28;20412;-64
2023/08/25 03:15:48;;;;;;;9.10;3.78;;;18.50;99.90;;;;;;5053754;28;20029;-64
2023/08/25 03:18:14;;;;;;;7.63;3.17;;;18.60;99.90;;;;;;5053808;28;20060;-64
2023/08/25 03:20:40;;;;;;;4.43;3.08;;;18.50;99.90;;;;;;5053436;28;20040;-64
2023/08/25 03:23:05;;;;;;;14.23;3.78;;;18.40;99.90;;;;;;5053635;28;20099;-64
2023/08/25 03:25:31;;;;;;;9.30;3.90;;;18.30;99.90;;;;;;5053623;28;20056;-64
2023/08/25 03:27:57;;;;;;;10.10;3.38;;;18.40;99.90;;;;;;5053503;28;20021;-64
2023/08/25 03:30:23;;;;;;;5.80;3.63;;;18.40;99.90;;;;;;5053305;28;20079;-65
2023/08/25 03:32:48;;;;;;;8.65;3.80;;;18.40;99.90;;;;;;5053148;28;20158;-64
2023/08/25 03:35:14;;;;;;;10.30;3.10;;;18.30;99.90;;;;;;5053550;28;20021;-64
2023/08/25 03:37:40;;;;;;;4.22;3.00;;;18.30;99.90;;;;;;5053477;28;20450;-65
2023/08/25 03:40:06;;;;;;;6.15;3.63;;;18.20;99.90;;;;;;5053353;28;20025;-64
2023/08/25 03:42:31;;;;;;;11.00;3.10;;;18.20;99.90;;;;;;5053242;28;20040;-64
2023/08/25 03:44:57;;;;;;;4.18;3.08;;;18.20;99.90;;;;;;5052950;28;20025;-65
2023/08/25 03:47:23;;;;;;;9.73;2.80;;;18.10;99.90;;;;;;5053261;28;20469;-65
2023/08/25 03:49:48;;;;;;;7.32;2.78;;;18.00;99.90;;;;;;5052903;28;20059;-65
2023/08/25 03:52:14;;;;;;;5.97;2.85;;;18.10;99.90;;;;;;5053017;28;20025;-65
2023/08/25 03:54:39;;;;;;;14.45;3.47;;;18.00;99.90;;;;;;5053704;28;20503;-65
2023/08/25 03:57:07;;;;;;;10.57;3.65;;;18.10;99.90;;;;;;5053106;28;20032;-75
2023/08/25 03:59:33;;;;;;;8.82;4.07;;;18.10;99.90;;;;;;5053099;28;20078;-67
2023/08/25 04:02:01;;;;;;;10.30;4.00;;;18.10;99.90;;;;;;5052775;28;20477;-64
2023/08/25 04:04:27;;;;;;;10.50;4.03;;;18.00;99.90;;;;;;5052915;28;20074;-64
2023/08/25 04:06:53;;;;;;;9.10;3.60;;;18.00;99.90;;;;;;5055465;28;20036;-65
2023/08/25 04:09:19;;;;;;;6.80;3.72;;;18.00;99.90;;;;;;5056727;28;20465;-66
2023/08/25 04:11:45;;;;;;;8.35;3.80;;;18.00;99.90;;;;;;5055276;28;20112;-67
2023/08/25 04:14:11;;;;;;;11.02;3.75;;;17.90;99.90;;;;;;5056324;28;20104;-66
2023/08/25 04:16:36;;;;;;;10.55;3.55;;;18.00;99.90;;;;;;5056796;28;20021;-67
2023/08/25 04:19:02;;;;;;;11.05;3.78;;;18.00;99.90;;;;;;5055173;28;20080;-66
2023/08/25 04:21:27;;;;;;;5.75;3.83;;;18.00;99.90;;;;;;5055215;28;20040;-66
2023/08/25 04:23:53;;;;;;;11.75;4.10;;;18.00;99.90;;;;;;5056487;28;20029;-65
2023/08/25 04:26:19;;;;;;;6.80;3.92;;;18.00;99.90;;;;;;5056132;28;20020;-64
2023/08/25 04:28:44;;;;;;;7.75;3.70;;;18.00;99.90;;;;;;5056282;28;20021;-66
2023/08/25 04:31:10;;;;;;;13.30;4.43;;;18.00;99.90;;;;;;5056268;28;20025;-63
2023/08/25 04:33:36;;;;;;;6.97;3.53;;;17.90;99.90;;;;;;5056347;28;20455;-65
2023/08/25 04:36:02;;;;;;;8.20;3.42;;;17.80;99.90;;;;;;5056273;28;20052;-63
2023/08/25 04:38:28;;;;;;;8.85;3.58;;;17.90;99.90;;;;;;5056646;28;20025;-64
2023/08/25 04:40:54;;;;;;;8.73;3.83;;;17.90;99.90;;;;;;5056179;28;20356;-65
2023/08/25 04:43:19;;;;;;;8.25;3.00;;;17.80;99.90;;;;;;5056620;28;20021;-65
2023/08/25 04:45:46;;;;;;;5.65;3.63;;;17.80;99.90;;;;;;5056223;28;20044;-65
2023/08/25 04:48:12;;;;;;;7.25;3.55;;;17.80;99.90;;;;;;5055949;28;20025;-64
2023/08/25 04:50:38;;;;;;;7.70;3.33;;;17.70;99.90;;;;;;5056449;28;20051;-64
2023/08/25 04:53:04;;;;;;;6.53;4.13;;;17.70;99.90;;;;;;5056098;28;20025;-64
2023/08/25 04:55:29;;;;;;;17.13;3.58;;;17.70;99.90;;;;;;5056088;28;20495;-65
2023/08/25 04:57:55;;;;;;;10.85;4.00;;;17.60;99.90;;;;;;5056042;28;20035;-64
2023/08/25 05:00:21;;;;;;;6.05;3.10;;;17.70;99.90;;;;;;5055700;28;20052;-63
2023/08/25 05:02:49;;;;;;;15.50;4.30;;;17.60;99.90;;;;;;5055761;28;20386;-67
2023/08/25 05:05:16;;;;;;;6.78;3.50;;;17.60;99.90;;;;;;5055575;28;20027;-65
2023/08/25 05:07:42;;;;;;;5.72;3.13;;;17.60;99.90;;;;;;5055516;28;20029;-64
2023/08/25 05:10:09;;;;;;;5.03;3.58;;;17.50;99.90;;;;;;5054302;28;20025;-66
2023/08/25 05:12:35;;;;;;;9.45;4.05;;;17.50;99.90;;;;;;5054106;28;20032;-66
2023/08/25 05:15:02;;;;;;;5.03;3.35;;;17.60;99.90;;;;;;5055132;28;20405;-64
2023/08/25 05:17:27;;;;;;;8.40;3.50;;;17.60;99.90;;;;;;5054949;28;20032;-63
2023/08/25 05:19:53;;;;;;;7.20;3.13;;;17.70;99.90;;;;;;5055480;28;20025;-64
2023/08/25 05:22:19;;;;;;;8.00;3.65;;;17.80;99.90;;;;;;5055232;28;20028;-63
2023/08/25 05:24:45;;;;;;;10.98;3.88;;;17.80;99.90;;;;;;5055298;28;20021;-64
2023/08/25 05:27:10;;;;;;;7.97;4.15;;;17.80;99.90;;;;;;5055721;28;20347;-64
2023/08/25 05:29:36;;;;;;;10.40;3.92;;;17.90;99.90;;;;;;5055247;28;20039;-64
2023/08/25 05:32:02;;;;;;;9.10;4.38;;;18.00;99.90;;;;;;5055123;28;20357;-64
2023/08/25 05:34:28;;;;;;;7.90;4.07;;;18.00;99.90;;;;;;5055083;28;20025;-66
2023/08/25 05:36:55;;;;;;;8.25;4.05;;;18.00;99.90;;;;;;5054756;28;20021;-65
2023/08/25 05:39:21;;;;;;;7.05;3.92;;;18.00;99.90;;;;;;5055557;28;20017;-65
2023/08/25 05:41:47;;;;;;;6.10;3.90;;;18.20;99.90;;;;;;5054941;28;20033;-63
2023/08/25 05:44:13;;;;;;;5.95;3.67;;;18.30;99.90;;;;;;5054707;28;20419;-64
2023/08/25 05:46:40;;;;;;;6.30;3.88;;;18.40;99.90;;;;;;5055418;28;20056;-64
2023/08/25 05:49:06;;;;;;;7.32;3.30;;;18.40;99.90;;;;;;5053227;28;20127;-63
2023/08/25 05:51:31;;;;;;;7.75;3.85;;;18.40;99.90;;;;;;5055054;28;20469;-65
2023/08/25 05:53:57;;;;;;;8.60;3.90;;;18.50;99.90;;;;;;5055311;28;20120;-64
2023/08/25 05:56:23;;;;;;;6.85;3.90;;;18.60;99.90;;;;;;5054622;28;20029;-63
2023/08/25 05:58:49;;;;;;;7.80;3.60;;;18.70;99.90;;;;;;5054645;28;20056;-63
2023/08/25 06:01:15;;;;;;;5.95;3.90;;;18.80;99.90;;;;;;5054632;28;20392;-63
2023/08/25 06:03:40;;;;;;;8.02;4.18;;;18.90;99.90;;;;;;5054755;28;20024;-65
2023/08/25 06:06:07;;;;;;;10.13;4.00;;;19.00;99.90;;;;;;5054511;28;20025;-65
2023/08/25 06:08:33;;;;;;;8.77;3.72;;;19.20;99.90;;;;;;5054632;28;20017;-64
2023/08/25 06:10:58;;;;;;;6.47;3.70;;;19.30;99.90;;;;;;5052815;28;20028;-65
2023/08/25 06:13:24;;;;;;;8.13;3.92;;;19.30;99.90;;;;;;5054222;28;20025;-65
2023/08/25 06:15:50;;;;;;;8.35;3.80;;;19.40;99.90;;;;;;5054854;28;20023;-65
2023/08/25 06:18:16;;;;;;;5.05;3.33;;;19.50;99.90;;;;;;5054169;28;20032;-65
2023/08/25 06:20:42;;;;;;;12.07;4.00;;;19.70;99.90;;;;;;5054318;28;20527;-65
2023/08/25 06:23:08;;;;;;;7.55;3.92;;;19.90;99.90;;;;;;5054400;28;20028;-63
2023/08/25 06:25:36;;;;;;;10.95;4.10;;;19.90;99.90;;;;;;5054391;28;20056;-64
2023/08/25 06:28:02;;;;;;;12.80;4.85;;;19.80;99.90;;;;;;5054662;28;20032;-63
2023/08/25 06:30:28;;;;;;;8.93;4.72;;;19.70;99.90;;;;;;5054231;28;20021;-63
2023/08/25 06:32:53;;;;;;;7.65;4.18;;;19.70;99.90;;;;;;5053905;28;20043;-63
2023/08/25 06:35:19;;;;;;;7.75;4.50;;;19.80;99.90;;;;;;5054209;28;20496;-64
2023/08/25 06:37:45;;;;;;;13.45;4.43;;;20.00;99.90;;;;;;5054173;28;20017;-63
2023/08/25 06:40:10;;;;;;;8.88;4.10;;;20.10;99.90;;;;;;5054217;28;20021;-65
2023/08/25 06:42:37;;;;;;;6.47;4.38;;;20.20;99.90;;;;;;5054330;28;20033;-65
2023/08/25 06:45:07;;;;;;;8.25;4.03;;;20.30;99.90;;;;;;5054070;28;20075;-64
2023/08/25 06:47:34;;;;;;;;;;;20.60;99.90;;;;;;5054023;28;20077;-63
2023/08/25 06:50:00;;;;;;;6.55;3.90;;;20.80;99.90;;;;;;5053322;28;19916;-65
2023/08/25 06:52:26;;;;;;;9.02;4.32;;;21.00;99.90;;;;;;5052550;28;20024;-65
2023/08/25 06:54:51;;;;;;;10.05;3.95;;;21.00;99.90;;;;;;5053920;28;20074;-65
2023/08/25 06:57:17;;;;;;;9.50;4.15;;;21.10;99.90;;;;;;5054045;28;20021;-64
2023/08/25 06:59:43;;;;;;;8.52;3.55;;;21.10;99.90;;;;;;5053555;28;20060;-64
2023/08/25 07:02:08;;;;;;;5.43;3.35;;;21.10;99.90;;;;;;5053631;28;20052;-64
2023/08/25 07:04:34;;;;;;;13.18;4.03;;;21.20;99.90;;;;;;5053468;28;20032;-64
2023/08/25 07:07:00;;;;;;;9.23;3.70;;;21.20;99.90;;;;;;5053806;28;20357;-64
2023/08/25 07:09:27;;;;;;;10.32;4.18;;;21.20;99.90;;;;;;5053670;28;20362;-65
2023/08/25 07:11:52;;;;;;;7.20;3.72;;;21.10;99.90;;;;;;5053524;28;20036;-64
2023/08/25 07:14:18;;;;;;;6.80;3.55;;;21.00;99.90;;;;;;5053823;28;20346;-63
2023/08/25 07:16:44;;;;;;;8.95;4.47;;;21.00;99.90;;;;;;5053632;28;20025;-65
2023/08/25 07:19:10;;;;;;;7.53;4.22;;;20.90;99.90;;;;;;5052939;28;20104;-64
2023/08/25 07:21:36;;;;;;;9.45;4.43;;;20.80;99.90;;;;;;5053565;28;20029;-64
2023/08/25 07:24:03;;;;;;;7.95;4.38;;;20.60;99.90;;;;;;5053183;28;20124;-64
2023/08/25 07:26:28;;;;;;;6.63;4.07;;;20.60;99.90;;;;;;5053260;28;20017;-63
2023/08/25 07:28:54;;;;;;;7.43;4.15;;;20.50;99.90;;;;;;5053199;28;20029;-64
2023/08/25 07:31:20;;;;;;;9.45;4.10;;;20.50;99.90;;;;;;5053163;28;20479;-64
2023/08/25 07:33:46;;;;;;;8.73;4.10;;;20.40;99.90;;;;;;5053114;28;20053;-64
2023/08/25 07:36:11;;;;;;;11.40;4.47;;;20.40;99.90;;;;;;5053137;28;20103;-67
2023/08/25 07:38:38;;;;;;;10.63;4.15;;;20.40;99.90;;;;;;5053074;28;20056;-64
2023/08/25 07:41:04;;;;;;;7.40;4.30;;;20.40;99.90;;;;;;5054437;28;20029;-65
2023/08/25 07:43:29;;;;;;;9.13;4.68;;;20.40;99.90;;;;;;5057021;28;20024;-66
2023/08/25 07:45:55;;;;;;;11.10;4.97;;;20.40;99.90;;;;;;5057067;28;20108;-66
2023/08/25 07:48:22;;;;;;;10.90;4.78;;;20.40;99.90;;;;;;5057167;28;20091;-65
2023/08/25 07:50:48;;;;;;;8.45;4.78;;;20.40;99.90;;;;;;5057166;28;20055;-66
2023/08/25 07:53:14;;;;;;;9.88;4.70;;;20.30;99.90;;;;;;5055641;28;20033;-66
2023/08/25 07:55:41;;;;;;;9.68;4.70;;;20.30;99.90;;;;;;5057140;28;20032;-63
2023/08/25 07:58:09;;;;;;;10.48;5.20;;;20.20;99.90;;;;;;5057002;28;20049;-64
2023/08/25 08:00:36;;;;;;;12.18;5.95;;;20.20;99.90;;;;;;5056669;28;20454;-64
2023/08/25 08:03:04;;;;;;;10.90;5.35;;;20.20;99.90;;;;;;5057160;28;20025;-63
2023/08/25 08:05:31;;;;;;;13.35;5.72;;;20.20;99.90;;;;;;5056720;28;20021;-64
2023/08/25 08:07:58;;;;;;;14.45;5.30;;;20.20;99.90;;;;;;5056448;28;20494;-64
2023/08/25 08:10:24;;;;;;;10.50;4.72;;;20.20;99.90;;;;;;5056553;28;20461;-68
2023/08/25 08:12:50;;;;;;;10.98;5.63;;;20.30;99.90;;;;;;5056465;28;20075;-66
2023/08/25 08:15:16;;;;;;;13.18;5.70;;;20.40;99.90;;;;;;5056785;28;20036;-64
2023/08/25 08:17:41;;;;;;;9.68;5.50;;;20.50;99.90;;;;;;5056427;28;20338;-65
2023/08/25 08:20:12;;;;;;;8.40;5.40;;;20.50;99.90;;;;;;5056113;28;20037;-65
2023/08/25 08:22:38;;;;;;;;;;;20.50;99.90;;;;;;5056864;28;20114;-65
2023/08/25 08:25:05;;;;;;;8.27;5.03;;;20.40;99.90;;;;;;5056395;28;19999;-66
2023/08/25 08:27:32;;;;;;;10.80;5.55;;;20.30;99.90;;;;;;5056255;28;20028;-65
2023/08/25 08:29:57;;;;;;;14.63;5.85;;;20.30;99.90;;;;;;5056520;28;20039;-68
2023/08/25 08:32:23;;;;;;;10.73;4.68;;;20.30;99.90;;;;;;5056940;28;20029;-64
2023/08/25 08:34:49;;;;;;;8.85;5.13;;;20.30;99.90;;;;;;5056459;28;20029;-65
2023/08/25 08:37:15;;;;;;;10.70;5.10;;;20.40;99.90;;;;;;5056242;28;20021;-65
2023/08/25 08:39:41;;;;;;;16.70;5.95;;;20.40;99.90;;;;;;5055809;28;20057;-66
2023/08/25 08:42:10;;;;;;;12.40;6.00;;;20.30;99.90;;;;;;5056185;28;20078;-65
2023/08/25 08:44:36;;;;;;;12.50;5.65;;;20.20;99.90;;;;;;5056060;28;20017;-64
2023/08/25 08:47:06;;;;;;;9.60;5.53;;;20.10;99.90;;;;;;5055880;28;20013;-66
2023/08/25 08:49:36;;;;;;;14.30;6.03;;;20.00;99.90;;;;;;5055465;28;20049;-66
2023/08/25 08:52:03;;;;;;;13.10;5.73;;;20.00;99.90;;;;;;5054920;28;20412;-67
2023/08/25 08:54:32;;;;;;;13.45;5.88;;;19.90;99.90;;;;;;5055553;28;20055;-65
2023/08/25 08:56:59;;;;;;;9.10;5.88;;;19.80;99.90;;;;;;5055884;28;20449;-65
2023/08/25 08:59:25;;;;;;;11.93;5.53;;;19.80;99.90;;;;;;5055824;28;20033;-64
2023/08/25 09:01:53;;;;;;;12.15;5.10;;;19.80;99.90;;;;;;5056148;28;20339;-66
2023/08/25 09:04:21;;;;;;;10.32;5.13;;;19.80;99.90;;;;;;5055392;28;20053;-65
2023/08/25 09:06:54;;;;;;;8.02;4.78;;;19.80;99.90;;;;;;5055851;28;20036;-63
2023/08/25 09:09:20;;;;;;;7.82;4.65;;;19.80;99.90;;;;;;5055670;28;20028;-66
2023/08/25 09:11:46;;;;;;;10.80;4.90;;;19.90;99.90;;;;;;5055530;28;20033;-65
2023/08/25 09:14:21;;;;;;;11.65;4.10;;;20.00;99.90;;;;;;5055231;28;20028;-66
2023/08/25 09:16:47;;;;;;;7.90;4.30;;;20.10;99.90;;;;;;5055680;28;20039;-65
2023/08/25 09:19:16;;;;;;;9.10;4.75;;;20.00;99.90;;;;;;5055207;28;20355;-64
2023/08/25 09:21:45;;;;;;;11.50;4.90;;;19.90;99.90;;;;;;5055519;28;20108;-64
2023/08/25 09:24:21;;;;;;;6.07;4.07;;;19.90;99.90;;;;;;5055350;28;20029;-64
2023/08/25 09:26:48;;;;;;;7.88;4.60;;;19.90;99.90;;;;;;5055878;28;20410;-66
2023/08/25 09:29:14;;;;;;;7.85;4.90;;;19.80;99.90;;;;;;5055962;28;20504;-65
2023/08/25 09:31:40;;;;;;;8.30;4.85;;;19.90;99.90;;;;;;5055155;28;20037;-64
2023/08/25 09:34:13;;;;;;;8.00;4.97;;;19.90;99.90;;;;;;5055791;28;20126;-66
2023/08/25 09:36:55;;;;;;;9.65;5.00;;;19.90;99.90;;;;;;5057017;28;20025;-64
2023/08/25 09:39:22;;;;;;;13.27;4.78;;;20.00;99.90;;;;;;5055456;28;20351;-64
2023/08/25 09:41:48;;;;;;;10.52;4.38;;;20.00;99.90;;;;;;5054981;28;20021;-67
2023/08/25 09:44:15;;;;;;;7.55;4.00;;;20.10;99.90;;;;;;5054896;28;20074;-65
2023/08/25 09:46:42;;;;;;;8.75;4.47;;;20.10;99.90;;;;;;5054926;28;20021;-64
2023/08/25 09:49:12;;;;;;;11.60;4.65;;;20.20;99.90;;;;;;5054514;28;20041;-66
2023/08/25 09:51:47;;;;;;;6.55;4.00;;;20.30;99.90;;;;;;5055511;28;20298;-64
2023/08/25 09:54:17;;;;;;;12.18;4.50;;;20.30;99.90;;;;;;5054797;28;20033;-64
2023/08/25 09:56:48;;;;;;;8.93;4.35;;;20.40;99.90;;;;;;5054901;28;20442;-64
2023/08/25 09:59:15;;;;;;;9.15;4.22;;;20.50;99.90;;;;;;5054728;28;20099;-66
2023/08/25 10:01:44;;;;;;;6.82;4.10;;;20.50;99.90;;;;;;5054348;28;20028;-65
2023/08/25 10:04:10;;;;;;;9.70;4.05;;;20.60;99.90;;;;;;5052866;28;20017;-66
2023/08/25 10:06:37;;;;;;;9.68;4.13;;;20.60;99.90;;;;;;5054554;28;20059;-66
2023/08/25 10:09:04;;;;;;;7.25;4.13;;;20.70;99.90;;;;;;5054836;28;20096;-66
2023/08/25 10:11:45;;;;;;;7.15;4.28;;;20.90;99.90;;;;;;5054847;28;20036;-65
2023/08/25 10:14:13;;;;;;;7.18;4.10;;;21.10;99.90;;;;;;5054750;28;20029;-65
2023/08/25 10:16:51;;;;;;;9.38;4.15;;;21.20;99.90;;;;;;5054271;28;20021;-65
2023/08/25 10:19:25;;;;;;;7.25;3.60;;;21.30;99.90;;;;;;5054417;28;20108;-66
2023/08/25 10:21:52;;;;;;;7.03;4.03;;;21.40;99.90;;;;;;5054782;28;20417;-64
2023/08/25 10:24:20;;;;;;;7.63;3.90;;;21.50;99.90;;;;;;5054165;28;20033;-65
2023/08/25 10:26:47;;;;;;;6.32;3.97;;;21.40;99.90;;;;;;5054027;28;20032;-64
2023/08/25 10:29:16;;;;;;;6.03;3.90;;;21.40;99.90;;;;;;5054129;28;20017;-66
2023/08/25 10:31:46;;;;;;;9.93;3.78;;;21.50;99.90;;;;;;5054271;28;20021;-65
2023/08/25 10:34:38;;;;;;;8.85;4.00;;;21.60;99.90;;;;;;5054269;28;20036;-65
2023/08/25 10:37:09;;;;;;;7.18;4.15;;;21.70;99.90;;;;;;5051028;28;20347;-66
2023/08/25 10:40:02;;;;;;;9.23;4.15;;;21.90;99.90;;;;;;5053508;28;20523;-65
2023/08/25 10:42:30;;;;;;;5.53;3.92;;;22.10;99.90;;;;;;5050868;28;20044;-66
2023/08/25 10:45:01;;;;;;;8.13;3.80;;;22.20;99.90;;;;;;5053871;28;20024;-64
2023/08/25 10:47:27;;;;;;;9.07;4.47;;;22.30;99.90;;;;;;5053688;28;20035;-65
2023/08/25 10:50:00;;;;;;;12.13;4.47;;;22.40;99.90;;;;;;5053736;28;20052;-65
2023/08/25 10:52:26;;;;;;;7.07;3.70;;;22.50;99.90;;;;;;5054404;28;20028;-65
2023/08/25 10:54:54;;;;;;;4.45;3.33;;;22.60;99.90;;;;;;5053666;28;20492;-65
2023/08/25 10:57:28;;;;;;;5.65;3.20;;;22.70;99.90;;;;;;5053696;28;20020;-64
2023/08/25 10:59:56;;;;;;;7.20;2.92;;;22.80;99.90;;;;;;5053918;28;20103;-65
2023/08/25 11:02:35;;;;;;;6.18;3.40;;;22.80;99.90;;;;;;5053964;28;20021;-66
2023/08/25 11:05:26;;;;;;;4.20;3.00;;;23.00;99.90;;;;;;5054193;28;20017;-65
2023/08/25 11:07:53;;;;;;;;;;;23.20;99.90;;;;;;5053729;28;20255;-64
2023/08/25 11:10:21;;;;;;;6.13;3.20;;;23.40;99.90;;;;;;5053529;28;20344;-65
2023/08/25 11:12:51;;;;;;;7.75;2.50;;;23.50;99.90;;;;;;5053465;28;20035;-65
2023/08/25 11:15:16;;;;;;;3.53;2.35;;;23.70;99.90;;;;;;5052821;28;20025;-65
2023/08/25 11:17:43;;;;;;;5.25;2.63;;;23.90;99.90;;;;;;5053335;28;20032;-65
2023/08/25 11:20:09;;;;;;;6.97;2.90;;;24.10;99.90;;;;;;5053681;28;20025;-65
2023/08/25 11:22:35;;;;;;;4.38;2.45;;;24.30;99.90;;;;;;5053413;28;20409;-65
2023/08/25 11:25:11;;;;;;;8.52;2.50;;;24.50;99.90;;;;;;5053335;28;20021;-65
2023/08/25 11:27:38;;;;;;;4.32;2.70;;;24.70;99.90;;;;;;5053395;28;20116;-65
2023/08/25 11:30:08;;;;;;;3.70;2.65;;;24.90;99.90;;;;;;5053050;28;20021;-66
2023/08/25 11:32:34;;;;;;;6.40;2.47;;;25.00;99.90;;;;;;5053212;28;20025;-65
2023/08/25 11:35:03;;;;;;;5.22;2.97;;;25.10;99.90;;;;;;5053492;28;20029;-65
2023/08/25 11:37:29;;;;;;;4.55;2.45;;;25.10;99.90;;;;;;5053967;28;20032;-65
2023/08/25 11:39:54;;;;;;;5.47;3.00;;;25.20;99.90;;;;;;5051920;28;20029;-66
2023/08/25 11:42:23;;;;;;;4.65;2.45;;;25.20;99.90;;;;;;5053254;28;20028;-66
2023/08/25 11:44:50;;;;;;;4.57;2.53;;;25.20;99.90;;;;;;5052905;28;20092;-66
2023/08/25 11:47:16;;;;;;;8.25;3.00;;;25.10;99.90;;;;;;5052883;28;20442;-66
2023/08/25 11:49:43;;;;;;;5.43;2.80;;;25.10;99.90;;;;;;5053081;28;20385;-66
2023/08/25 11:52:08;;;;;;;6.55;2.50;;;25.00;99.90;;;;;;5053040;28;20043;-66
2023/08/25 11:54:52;;;;;;;4.55;2.85;;;25.00;99.90;;;;;;5053130;28;20029;-65
2023/08/25 11:57:18;;;;;;;6.22;2.70;;;25.00;99.90;;;;;;5053053;28;20065;-65
2023/08/25 11:59:48;;;;;;;5.13;2.90;;;25.00;99.90;;;;;;5053516;28;20028;-66
2023/08/25 12:02:15;;;;;;;7.63;2.63;;;25.00;99.90;;;;;;5053272;28;20025;-65
2023/08/25 12:04:52;;;;;;;5.05;2.85;;;25.00;99.90;;;;;;5054038;28;20033;-66
2023/08/25 12:07:22;;;;;;;4.20;2.78;;;25.00;99.90;;;;;;5053010;28;20028;-66
2023/08/25 12:09:56;;;;;;;4.95;2.67;;;25.00;99.90;;;;;;5053046;28;20117;-65
2023/08/25 12:12:22;;;;;;;5.18;2.83;;;25.00;99.90;;;;;;5053467;28;20033;-66
2023/08/25 12:14:52;;;;;;;4.45;2.95;;;25.00;99.90;;;;;;5052620;28;20506;-64
2023/08/25 12:17:28;;;;;;;4.20;2.90;;;25.00;99.90;;;;;;5052818;28;20457;-67
2023/08/25 12:19:58;;;;;;;6.68;3.08;;;25.00;99.90;;;;;;5052874;28;20470;-66
2023/08/25 12:22:24;;;;;;;14.00;2.90;;;24.90;99.90;;;;;;5053187;28;20108;-65
2023/08/25 12:24:50;;;;;;;4.75;3.00;;;25.00;99.90;;;;;;5053133;28;20029;-66
2023/08/25 12:27:18;;;;;;;4.30;2.90;;;24.90;99.90;;;;;;5054487;28;20342;-65
2023/08/25 12:29:43;;;;;;;10.48;3.10;;;24.80;99.90;;;;;;5056501;28;20025;-66
2023/08/25 12:32:09;;;;;;;6.82;3.03;;;24.90;99.90;;;;;;5056604;28;20342;-66
2023/08/25 12:34:36;;;;;;;4.60;3.00;;;24.90;99.90;;;;;;5056511;28;20021;-64
2023/08/25 12:37:03;;;;;;;7.05;3.22;;;25.00;99.90;;;;;;5056286;28;20100;-65
2023/08/25 12:39:29;;;;;;;6.68;3.22;;;25.00;99.90;;;;;;5057020;28;20028;-65
2023/08/25 12:41:55;;;;;;;11.35;3.40;;;25.00;99.90;;;;;;5056290;28;20025;-67
2023/08/25 12:44:21;;;;;;;6.57;3.28;;;25.00;99.90;;;;;;5056194;28;20029;-66
2023/08/25 12:46:47;;;;;;;6.55;3.45;;;25.00;99.90;;;;;;5056189;28;20408;-66